Time;durP1;ratioP1;P1;durP2;ratioP2;P2;SDS_P1;SDS_P2;PMS_P1;PMS_P2;Temp;Humidity;BMP_temperature;BMP_pressure;BME280_temperature;BME280_humidity;BME280_pressure;Samples;Min_cycle;Max_cycle;Signal;HPM_P1;HPM_P2
2023/09/05 00:02:18;;;;;;;1.40;0.90;;;18.90;93.90;;;;;;4179968;28;20126;-55
2023/09/05 00:04:38;;;;;;;2.63;1.38;;;18.90;94.10;;;;;;4177607;28;20451;-55
2023/09/05 00:06:58;;;;;;;1.60;1.05;;;18.90;94.10;;;;;;4178506;28;20450;-55
2023/09/05 00:09:18;;;;;;;1.58;1.13;;;18.90;94.40;;;;;;4176283;28;20072;-55
2023/09/05 00:11:38;;;;;;;1.10;0.95;;;18.80;94.20;;;;;;4181592;28;20135;-55
2023/09/05 00:14:00;;;;;;;1.83;1.73;;;18.90;94.40;;;;;;4183594;28;20085;-56
2023/09/05 00:16:20;;;;;;;3.20;1.00;;;18.90;94.30;;;;;;4180641;28;20048;-55
2023/09/05 00:18:42;;;;;;;1.52;1.00;;;18.90;94.40;;;;;;4181788;28;20108;-55
2023/09/05 00:21:02;;;;;;;2.05;1.35;;;18.90;94.50;;;;;;4182792;28;20044;-55
2023/09/05 00:23:26;;;;;;;2.78;1.30;;;18.90;94.70;;;;;;4173865;28;20049;-55
2023/09/05 00:25:47;;;;;;;1.40;1.30;;;18.80;94.70;;;;;;4180508;28;20236;-56
2023/09/05 00:28:06;;;;;;;2.30;1.00;;;18.80;94.90;;;;;;4180166;28;20254;-56
2023/09/05 00:30:27;;;;;;;1.35;1.00;;;18.80;95.00;;;;;;4179239;28;20072;-55
2023/09/05 00:32:47;;;;;;;1.50;1.02;;;18.70;95.10;;;;;;4176963;28;20398;-55
2023/09/05 00:35:07;;;;;;;2.05;0.93;;;18.70;95.30;;;;;;4180958;28;20060;-55
2023/09/05 00:37:28;;;;;;;2.03;1.00;;;18.70;95.40;;;;;;4181067;28;20044;-56
2023/09/05 00:39:48;;;;;;;4.53;1.33;;;18.70;95.30;;;;;;4179533;28;20227;-55
2023/09/05 00:42:13;;;;;;;3.33;1.20;;;18.70;95.80;;;;;;4173524;28;20243;-55
2023/09/05 00:44:33;;;;;;;1.10;1.00;;;18.70;95.60;;;;;;4177782;28;20366;-56
2023/09/05 00:46:55;;;;;;;2.70;1.30;;;18.70;95.50;;;;;;4177702;28;20091;-56
2023/09/05 00:49:16;;;;;;;1.30;1.00;;;18.70;95.60;;;;;;4175927;28;20048;-55
2023/09/05 00:51:37;;;;;;;0.90;0.90;;;18.60;96.10;;;;;;4180804;28;20478;-55
2023/09/05 00:53:58;;;;;;;1.00;1.00;;;18.60;96.00;;;;;;4178781;28;20304;-55
2023/09/05 00:56:18;;;;;;;1.15;1.15;;;18.60;96.10;;;;;;4176012;28;20414;-55
2023/09/05 00:58:38;;;;;;;1.60;1.00;;;18.60;95.90;;;;;;4179027;28;20079;-56
2023/09/05 01:00:58;;;;;;;1.90;1.30;;;18.60;95.80;;;;;;4178354;28;20049;-55
2023/09/05 01:03:18;;;;;;;1.63;1.20;;;18.70;95.80;;;;;;4198911;22;20052;-58
2023/09/05 01:05:46;;;;;;;1.95;0.98;;;18.70;96.00;;;;;;4187700;28;20051;-59
2023/09/05 01:08:17;;;;;;;2.55;1.00;;;18.60;96.00;;;;;;4189297;28;20047;-58
2023/09/05 01:10:46;;;;;;;1.00;0.90;;;18.60;96.20;;;;;;4182338;28;20040;-58
2023/09/05 01:13:06;;;;;;;1.35;1.10;;;18.50;96.30;;;;;;4188675;28;20043;-58
2023/09/05 01:15:27;;;;;;;1.40;1.20;;;18.50;96.30;;;;;;4193143;28;20051;-58
2023/09/05 01:17:53;;;;;;;1.25;1.08;;;18.50;96.40;;;;;;4188050;28;20043;-58
2023/09/05 01:20:16;;;;;;;1.00;1.00;;;18.50;96.30;;;;;;4189961;28;20068;-58
2023/09/05 01:23:06;;;;;;;1.83;1.00;;;18.50;96.20;;;;;;4187329;28;20071;-58
2023/09/05 01:25:27;;;;;;;0.90;0.90;;;18.60;96.20;;;;;;4188717;28;20101;-58
2023/09/05 01:27:48;;;;;;;1.13;1.00;;;18.60;96.30;;;;;;4191069;28;20083;-58
2023/09/05 01:30:09;;;;;;;0.90;0.90;;;18.50;96.20;;;;;;4189242;28;20098;-59
2023/09/05 01:32:29;;;;;;;1.40;1.40;;;18.60;96.10;;;;;;4188447;28;20047;-58
2023/09/05 01:34:49;;;;;;;1.20;1.10;;;18.60;95.80;;;;;;4191999;28;20048;-58
2023/09/05 01:37:10;;;;;;;2.20;1.20;;;18.60;95.80;;;;;;4197316;28;20054;-59
2023/09/05 01:39:30;;;;;;;1.17;1.05;;;18.60;95.90;;;;;;4188615;28;20282;-59
2023/09/05 01:41:50;;;;;;;2.35;1.00;;;18.50;96.00;;;;;;4194893;28;20060;-58
2023/09/05 01:44:10;;;;;;;1.00;1.00;;;18.50;96.10;;;;;;4187780;28;20362;-58
2023/09/05 01:46:30;;;;;;;1.20;1.10;;;18.50;96.00;;;;;;4189943;28;20051;-58
2023/09/05 01:48:50;;;;;;;1.33;0.95;;;18.50;96.10;;;;;;4188815;28;20056;-58
2023/09/05 01:51:10;;;;;;;1.30;1.20;;;18.60;96.30;;;;;;4189487;28;20243;-58
2023/09/05 01:53:30;;;;;;;8.27;1.55;;;18.50;96.30;;;;;;4189697;28;20048;-58
2023/09/05 01:55:50;;;;;;;1.13;0.90;;;18.40;96.30;;;;;;4188864;28;20055;-59
2023/09/05 01:58:10;;;;;;;1.20;1.20;;;18.40;96.40;;;;;;4188721;28;20255;-58
2023/09/05 02:00:32;;;;;;;3.35;1.13;;;18.40;96.30;;;;;;4186034;28;20078;-58
2023/09/05 02:02:51;;;;;;;1.67;1.58;;;18.50;96.30;;;;;;4195718;28;20243;-58
2023/09/05 02:05:11;;;;;;;1.17;1.08;;;18.50;96.20;;;;;;4192347;28;20068;-58
2023/09/05 02:07:32;;;;;;;2.20;1.98;;;18.50;96.30;;;;;;4190723;28;20113;-58
2023/09/05 02:09:52;;;;;;;1.55;1.45;;;18.50;96.20;;;;;;4191602;28;20059;-58
2023/09/05 02:12:12;;;;;;;1.45;1.10;;;18.40;96.40;;;;;;4190464;28;20040;-59
2023/09/05 02:14:32;;;;;;;4.47;1.17;;;18.40;96.30;;;;;;4195541;28;20044;-58
2023/09/05 02:16:52;;;;;;;3.00;1.58;;;18.40;96.10;;;;;;4191787;28;20056;-58
2023/09/05 02:19:13;;;;;;;1.35;1.20;;;18.40;96.20;;;;;;4192544;28;20142;-58
2023/09/05 02:21:33;;;;;;;1.00;1.00;;;18.50;96.30;;;;;;4190933;28;20378;-58
2023/09/05 02:23:53;;;;;;;1.10;1.10;;;18.50;96.30;;;;;;4191653;28;20063;-58
2023/09/05 02:26:14;;;;;;;1.50;1.50;;;18.40;96.20;;;;;;4191394;28;20124;-58
2023/09/05 02:28:34;;;;;;;2.78;1.20;;;18.40;96.20;;;;;;4193607;28;20048;-58
2023/09/05 02:30:54;;;;;;;1.50;1.48;;;18.40;96.30;;;;;;4190826;28;20110;-58
2023/09/05 02:33:15;;;;;;;1.60;1.00;;;18.40;96.50;;;;;;4190246;28;20080;-58
2023/09/05 02:35:35;;;;;;;1.02;1.02;;;18.40;96.30;;;;;;4193779;28;20369;-58
2023/09/05 02:37:55;;;;;;;2.47;1.33;;;18.40;96.20;;;;;;4196458;28;20056;-58
2023/09/05 02:40:15;;;;;;;1.50;0.93;;;18.30;96.60;;;;;;4194344;28;20047;-58
2023/09/05 02:42:35;;;;;;;1.02;1.02;;;18.30;96.50;;;;;;4191096;28;20113;-59
2023/09/05 02:44:56;;;;;;;1.00;1.00;;;18.30;96.40;;;;;;4192551;28;20083;-59
2023/09/05 02:47:16;;;;;;;1.42;1.00;;;18.30;96.50;;;;;;4191914;28;20047;-59
2023/09/05 02:49:36;;;;;;;2.25;0.93;;;18.40;96.20;;;;;;4191442;28;20071;-58
2023/09/05 02:51:59;;;;;;;1.33;1.33;;;18.50;96.00;;;;;;4189703;28;20144;-58
2023/09/05 02:54:19;;;;;;;1.00;1.00;;;18.50;96.40;;;;;;4199812;28;20043;-58
2023/09/05 02:56:39;;;;;;;1.20;1.00;;;18.40;96.20;;;;;;4190775;28;20239;-58
2023/09/05 02:58:59;;;;;;;2.20;1.10;;;18.50;95.80;;;;;;4192762;28;20374;-57
2023/09/05 03:01:19;;;;;;;1.98;1.10;;;18.50;95.90;;;;;;4191004;28;20227;-57
2023/09/05 03:03:39;;;;;;;2.15;1.33;;;18.40;96.10;;;;;;4195276;28;20062;-58
2023/09/05 03:06:13;;;;;;;1.27;0.93;;;18.40;96.20;;;;;;4192842;28;20040;-58
2023/09/05 03:08:34;;;;;;;1.17;1.00;;;18.40;96.10;;;;;;4190630;28;20086;-58
2023/09/05 03:10:54;;;;;;;1.17;1.17;;;18.40;96.50;;;;;;4190815;28;20056;-58
2023/09/05 03:13:14;;;;;;;1.60;1.13;;;18.30;96.30;;;;;;4190204;28;20148;-58
2023/09/05 03:15:33;;;;;;;2.55;1.33;;;18.30;96.70;;;;;;4189579;28;20082;-58
2023/09/05 03:17:53;;;;;;;1.80;1.10;;;18.30;96.40;;;;;;4191206;28;20240;-58
2023/09/05 03:20:15;;;;;;;2.58;1.20;;;18.40;96.20;;;;;;4199241;28;20087;-58
2023/09/05 03:22:35;;;;;;;1.90;1.17;;;18.40;96.20;;;;;;4194955;28;20124;-57
2023/09/05 03:24:55;;;;;;;1.00;1.00;;;18.40;96.10;;;;;;4198995;28;20090;-58
2023/09/05 03:27:15;;;;;;;1.05;0.90;;;18.40;96.20;;;;;;4190393;28;20051;-57
2023/09/05 03:29:34;;;;;;;1.80;1.20;;;18.40;96.20;;;;;;4191308;28;20056;-58
2023/09/05 03:31:54;;;;;;;1.40;1.30;;;18.40;96.40;;;;;;4194394;28;20414;-57
2023/09/05 03:34:14;;;;;;;1.33;1.10;;;18.30;96.40;;;;;;4191656;28;20055;-57
2023/09/05 03:36:35;;;;;;;1.35;1.35;;;18.40;96.20;;;;;;4190665;28;20060;-58
2023/09/05 03:38:55;;;;;;;1.10;1.10;;;18.30;96.40;;;;;;4189328;28;20056;-58
2023/09/05 03:41:15;;;;;;;1.20;1.20;;;18.20;96.60;;;;;;4191924;28;20083;-59
2023/09/05 03:43:35;;;;;;;1.30;1.20;;;18.20;96.70;;;;;;4191655;28;20056;-58
2023/09/05 03:45:55;;;;;;;2.30;1.33;;;18.20;96.60;;;;;;4189410;28;20286;-58
2023/09/05 03:48:16;;;;;;;1.67;1.58;;;18.30;96.60;;;;;;4195178;28;20086;-58
2023/09/05 03:50:36;;;;;;;1.10;1.10;;;18.30;96.80;;;;;;4198287;28;20107;-58
2023/09/05 03:52:56;;;;;;;1.23;1.23;;;18.30;96.60;;;;;;4190230;28;20044;-58
2023/09/05 03:55:16;;;;;;;1.58;1.20;;;18.20;96.80;;;;;;4190152;28;20098;-58
2023/09/05 03:57:37;;;;;;;1.20;1.10;;;18.20;96.70;;;;;;4193779;28;20056;-58
2023/09/05 03:59:57;;;;;;;2.05;1.10;;;18.20;96.70;;;;;;4190678;28;20048;-58
2023/09/05 04:02:17;;;;;;;1.33;1.23;;;18.20;96.80;;;;;;4190238;28;20051;-58
2023/09/05 04:04:37;;;;;;;2.28;1.30;;;18.20;97.00;;;;;;4189991;28;20060;-58
2023/09/05 04:06:56;;;;;;;1.27;1.20;;;18.20;96.80;;;;;;4194595;28;20035;-57
2023/09/05 04:09:16;;;;;;;2.30;1.13;;;18.30;96.80;;;;;;4191967;28;20072;-59
2023/09/05 04:11:37;;;;;;;1.20;1.20;;;18.30;96.90;;;;;;4190408;28;20140;-58
2023/09/05 04:13:57;;;;;;;2.70;1.30;;;18.20;96.90;;;;;;4189934;28;20078;-58
2023/09/05 04:16:17;;;;;;;2.08;1.20;;;18.20;97.10;;;;;;4188800;28;20095;-58
2023/09/05 04:18:37;;;;;;;10.40;2.05;;;18.20;97.20;;;;;;4190140;28;20101;-57
2023/09/05 04:21:00;;;;;;;2.25;1.45;;;18.30;97.00;;;;;;4188686;28;20071;-58
2023/09/05 04:23:20;;;;;;;;;;;18.30;96.90;;;;;;4193037;28;20051;-58
2023/09/05 04:25:40;;;;;;;1.85;0.98;;;18.40;97.10;;;;;;4191204;28;19924;-59
2023/09/05 04:28:00;;;;;;;1.60;1.48;;;18.30;97.00;;;;;;4189637;28;20075;-58
2023/09/05 04:30:20;;;;;;;1.00;1.00;;;18.30;97.20;;;;;;4190281;28;20358;-58
2023/09/05 04:32:42;;;;;;;1.95;1.00;;;18.30;97.00;;;;;;4196843;28;20040;-58
2023/09/05 04:35:05;;;;;;;2.08;1.08;;;18.30;97.00;;;;;;4188635;28;20113;-59
2023/09/05 04:37:25;;;;;;;1.20;1.10;;;18.30;96.80;;;;;;4194335;28;20082;-58
2023/09/05 04:39:45;;;;;;;1.15;1.15;;;18.30;96.90;;;;;;4188953;28;20312;-59
2023/09/05 04:42:06;;;;;;;2.35;1.40;;;18.30;96.90;;;;;;4190200;28;20078;-58
2023/09/05 04:44:27;;;;;;;1.30;1.20;;;18.30;96.80;;;;;;4189587;28;20379;-59
2023/09/05 04:46:47;;;;;;;1.45;1.10;;;18.30;96.70;;;;;;4189236;28;20048;-58
2023/09/05 04:49:09;;;;;;;1.20;1.20;;;18.20;96.60;;;;;;4191122;28;20087;-58
2023/09/05 04:51:28;;;;;;;1.40;1.30;;;18.40;96.50;;;;;;4191727;28;20087;-58
2023/09/05 04:53:49;;;;;;;2.53;1.20;;;18.40;96.60;;;;;;4188427;28;20370;-58
2023/09/05 04:56:11;;;;;;;2.47;1.05;;;18.30;96.70;;;;;;4187838;28;20076;-58
2023/09/05 04:58:32;;;;;;;1.85;1.30;;;18.30;96.80;;;;;;4189409;28;20052;-58
2023/09/05 05:00:56;;;;;;;2.88;1.10;;;18.20;96.80;;;;;;4193096;28;20048;-58
2023/09/05 05:03:16;;;;;;;1.20;1.00;;;18.20;97.00;;;;;;4195267;28;20176;-58
2023/09/05 05:05:36;;;;;;;1.45;1.35;;;18.10;97.40;;;;;;4192166;28;20118;-58
2023/09/05 05:07:56;;;;;;;2.25;1.20;;;18.20;97.00;;;;;;4188550;28;20048;-58
2023/09/05 05:10:17;;;;;;;2.35;1.00;;;18.20;97.10;;;;;;4189943;28;20110;-58
2023/09/05 05:12:36;;;;;;;2.22;1.00;;;18.10;97.20;;;;;;4187959;28;20048;-58
2023/09/05 05:14:56;;;;;;;1.77;1.20;;;18.10;97.60;;;;;;4189519;28;20099;-59
2023/09/05 05:17:16;;;;;;;1.15;1.15;;;18.10;97.70;;;;;;4191016;28;20048;-58
2023/09/05 05:19:36;;;;;;;1.70;1.10;;;18.10;97.30;;;;;;4188382;28;20116;-58
2023/09/05 05:21:56;;;;;;;1.95;1.10;;;18.10;97.40;;;;;;4187956;28;20068;-58
2023/09/05 05:24:16;;;;;;;2.10;1.10;;;18.10;97.70;;;;;;4188970;28;20071;-58
2023/09/05 05:26:35;;;;;;;4.80;1.80;;;18.10;97.60;;;;;;4198360;28;20043;-58
2023/09/05 05:28:55;;;;;;;1.35;1.25;;;18.10;97.50;;;;;;4188939;28;20051;-58
2023/09/05 05:31:15;;;;;;;1.15;1.15;;;18.20;97.40;;;;;;4188227;28;20068;-58
2023/09/05 05:33:35;;;;;;;3.00;1.50;;;18.20;97.00;;;;;;4194212;28;20114;-58
2023/09/05 05:35:55;;;;;;;1.02;1.02;;;18.30;97.30;;;;;;4190390;28;20374;-58
2023/09/05 05:38:15;;;;;;;1.35;1.25;;;18.30;97.40;;;;;;4188008;28;20320;-59
2023/09/05 05:40:35;;;;;;;2.35;1.20;;;18.20;97.60;;;;;;4187771;28;20381;-58
2023/09/05 05:42:56;;;;;;;1.95;1.27;;;18.10;97.90;;;;;;4188858;28;20044;-58
2023/09/05 05:45:16;;;;;;;1.65;1.10;;;18.10;97.80;;;;;;4188146;28;20047;-59
2023/09/05 05:47:36;;;;;;;1.20;1.10;;;18.10;97.90;;;;;;4188071;28;20087;-59
2023/09/05 05:49:55;;;;;;;2.10;1.20;;;18.10;98.00;;;;;;4198052;28;20064;-58
2023/09/05 05:52:16;;;;;;;1.33;1.10;;;18.10;98.70;;;;;;4195225;28;20051;-59
2023/09/05 05:54:36;;;;;;;1.52;1.42;;;18.10;98.40;;;;;;4189410;28;20090;-58
2023/09/05 05:56:56;;;;;;;2.90;1.20;;;18.10;98.80;;;;;;4188572;28;20367;-58
2023/09/05 05:59:16;;;;;;;1.30;1.23;;;18.10;98.40;;;;;;4193722;28;20214;-59
2023/09/05 06:01:36;;;;;;;3.17;1.00;;;18.20;98.30;;;;;;4189049;28;20112;-58
2023/09/05 06:03:56;;;;;;;1.95;1.15;;;18.20;98.20;;;;;;4188502;28;20315;-58
2023/09/05 06:06:16;;;;;;;3.60;1.20;;;18.30;97.20;;;;;;4187753;28;20071;-58
2023/09/05 06:08:37;;;;;;;1.27;1.27;;;18.30;96.80;;;;;;4187835;28;20102;-58
2023/09/05 06:10:57;;;;;;;1.00;0.90;;;18.40;97.20;;;;;;4188529;28;20071;-58
2023/09/05 06:13:17;;;;;;;1.40;1.38;;;18.50;97.00;;;;;;4193273;28;20052;-58
2023/09/05 06:15:37;;;;;;;1.83;1.02;;;18.50;97.50;;;;;;4198556;28;20094;-59
2023/09/05 06:17:57;;;;;;;1.58;1.45;;;18.70;97.00;;;;;;4191885;28;20409;-59
2023/09/05 06:20:19;;;;;;;2.05;1.33;;;18.70;97.20;;;;;;4196813;28;20051;-58
2023/09/05 06:22:39;;;;;;;1.52;1.40;;;18.70;96.40;;;;;;4196679;28;20120;-58
2023/09/05 06:24:59;;;;;;;1.10;1.10;;;18.70;96.70;;;;;;4189552;28;20044;-58
2023/09/05 06:27:20;;;;;;;1.15;1.15;;;18.90;96.00;;;;;;4187330;28;20080;-58
2023/09/05 06:29:40;;;;;;;1.95;1.27;;;18.90;96.30;;;;;;4190312;28;20048;-58
2023/09/05 06:32:00;;;;;;;3.40;1.00;;;19.00;96.60;;;;;;4189750;28;20037;-59
2023/09/05 06:34:20;;;;;;;2.08;0.90;;;19.10;96.90;;;;;;4189282;28;20047;-58
2023/09/05 06:36:40;;;;;;;1.65;1.00;;;19.20;96.80;;;;;;4187856;28;20079;-58
2023/09/05 06:39:03;;;;;;;1.30;1.20;;;19.30;96.30;;;;;;4198548;28;20078;-58
2023/09/05 06:41:23;;;;;;;1.58;1.45;;;19.30;96.70;;;;;;4189871;28;20528;-58
2023/09/05 06:43:43;;;;;;;1.60;1.10;;;19.30;96.10;;;;;;4191729;28;20075;-59
2023/09/05 06:46:07;;;;;;;2.15;1.33;;;19.40;95.90;;;;;;4192553;28;20079;-58
2023/09/05 06:48:27;;;;;;;1.02;1.00;;;19.40;95.70;;;;;;4190702;28;20099;-58
2023/09/05 06:50:47;;;;;;;1.17;1.10;;;19.40;95.30;;;;;;4189955;28;20114;-58
2023/09/05 06:53:07;;;;;;;1.88;0.90;;;19.50;94.70;;;;;;4191050;28;20091;-58
2023/09/05 06:55:28;;;;;;;1.00;1.00;;;19.60;95.30;;;;;;4191721;28;20040;-58
2023/09/05 06:57:48;;;;;;;1.70;1.17;;;19.70;95.50;;;;;;4192306;28;20064;-58
2023/09/05 07:00:10;;;;;;;1.00;1.00;;;19.80;95.40;;;;;;4192144;28;20043;-58
2023/09/05 07:02:30;;;;;;;1.10;1.00;;;19.90;95.00;;;;;;4190897;28;20048;-58
2023/09/05 07:04:50;;;;;;;2.17;1.30;;;20.00;94.20;;;;;;4191823;28;20165;-58
2023/09/05 07:07:10;;;;;;;1.48;1.00;;;20.00;95.50;;;;;;4191588;28;20064;-58
2023/09/05 07:09:31;;;;;;;1.00;1.00;;;20.20;94.10;;;;;;4200116;28;20155;-58
2023/09/05 07:11:51;;;;;;;1.90;1.27;;;20.10;94.70;;;;;;4195972;28;20140;-58
2023/09/05 07:14:11;;;;;;;1.30;1.08;;;20.10;93.70;;;;;;4192868;28;20055;-58
2023/09/05 07:16:30;;;;;;;0.85;0.85;;;20.30;94.10;;;;;;4192474;28;20083;-58
2023/09/05 07:18:51;;;;;;;1.15;1.05;;;20.40;93.60;;;;;;4193100;28;20059;-58
2023/09/05 07:21:11;;;;;;;1.02;0.90;;;20.20;92.50;;;;;;4193371;28;20051;-58
2023/09/05 07:23:31;;;;;;;0.90;0.90;;;20.10;93.90;;;;;;4192466;28;20052;-58
2023/09/05 07:25:50;;;;;;;2.55;1.08;;;20.10;93.10;;;;;;4191356;28;20163;-58
2023/09/05 07:28:10;;;;;;;2.22;1.27;;;20.20;92.90;;;;;;4194047;28;20117;-58
2023/09/05 07:30:34;;;;;;;1.20;1.20;;;20.10;93.30;;;;;;4192528;28;20044;-59
2023/09/05 07:32:54;;;;;;;1.55;1.45;;;20.30;93.90;;;;;;4192240;28;20064;-58
2023/09/05 07:35:14;;;;;;;1.10;0.90;;;20.40;94.10;;;;;;4191626;28;20063;-58
2023/09/05 07:37:34;;;;;;;1.00;1.00;;;20.60;93.00;;;;;;4191012;28;20419;-58
2023/09/05 07:39:54;;;;;;;1.67;0.95;;;20.60;93.10;;;;;;4194230;28;20048;-58
2023/09/05 07:42:14;;;;;;;1.75;1.00;;;20.70;93.30;;;;;;4191795;28;20086;-58
2023/09/05 07:44:34;;;;;;;3.67;1.10;;;20.80;93.30;;;;;;4191967;28;20273;-58
2023/09/05 07:46:54;;;;;;;2.45;1.10;;;20.80;92.10;;;;;;4192699;28;20059;-58
2023/09/05 07:49:15;;;;;;;1.98;1.10;;;20.80;92.50;;;;;;4191898;28;20048;-58
2023/09/05 07:51:35;;;;;;;2.03;0.93;;;20.90;92.40;;;;;;4191288;28;20236;-58
2023/09/05 07:54:03;;;;;;;1.00;1.00;;;21.10;92.60;;;;;;4192005;28;20363;-58
2023/09/05 07:56:24;;;;;;;1.30;1.10;;;21.30;92.40;;;;;;4192249;28;20039;-58
2023/09/05 07:58:44;;;;;;;1.85;0.90;;;21.30;92.30;;;;;;4191745;28;20072;-58
2023/09/05 08:01:09;;;;;;;1.58;0.90;;;21.40;92.10;;;;;;4190849;28;20086;-58
2023/09/05 08:03:29;;;;;;;1.33;1.00;;;21.40;92.20;;;;;;4191070;28;20281;-58
2023/09/05 08:05:50;;;;;;;1.30;1.30;;;21.40;91.70;;;;;;4190630;28;20101;-58
2023/09/05 08:08:10;;;;;;;1.30;1.20;;;21.30;91.80;;;;;;4190559;28;20112;-58
2023/09/05 08:10:30;;;;;;;2.38;1.05;;;21.40;91.70;;;;;;4192465;28;20056;-59
2023/09/05 08:12:50;;;;;;;0.90;0.90;;;21.40;91.70;;;;;;4192552;28;20417;-58
2023/09/05 08:15:11;;;;;;;1.95;1.17;;;21.50;91.50;;;;;;4191176;28;20110;-58
2023/09/05 08:17:32;;;;;;;1.00;1.00;;;21.80;91.10;;;;;;4189532;28;20044;-58
2023/09/05 08:19:51;;;;;;;1.00;1.00;;;21.80;89.00;;;;;;4190528;28;20236;-59
2023/09/05 08:22:12;;;;;;;1.25;0.85;;;21.80;90.10;;;;;;4190406;28;20072;-58
2023/09/05 08:24:32;;;;;;;3.35;0.90;;;21.80;90.60;;;;;;4190833;28;20052;-58
2023/09/05 08:26:52;;;;;;;1.55;0.90;;;22.00;90.30;;;;;;4191206;28;20413;-58
2023/09/05 08:29:14;;;;;;;1.23;1.13;;;22.00;89.90;;;;;;4191421;28;20137;-58
2023/09/05 08:31:34;;;;;;;1.00;1.00;;;21.90;89.50;;;;;;4190526;28;20075;-58
2023/09/05 08:33:54;;;;;;;0.90;0.90;;;21.70;90.00;;;;;;4189121;28;20052;-58
2023/09/05 08:36:13;;;;;;;2.67;0.90;;;21.70;90.90;;;;;;4191091;28;20401;-58
2023/09/05 08:38:40;;;;;;;2.15;1.55;;;21.50;87.50;;;;;;4190480;28;20076;-59
2023/09/05 08:41:01;;;;;;;1.00;0.90;;;21.40;89.70;;;;;;4190629;28;20040;-59
2023/09/05 08:43:21;;;;;;;0.90;0.90;;;21.50;89.60;;;;;;4190321;28;20358;-59
2023/09/05 08:45:44;;;;;;;0.82;0.80;;;21.40;88.40;;;;;;4191100;28;20059;-58
2023/09/05 08:48:04;;;;;;;0.82;0.82;;;21.60;89.10;;;;;;4192013;28;20048;-58
2023/09/05 08:50:26;;;;;;;1.85;1.25;;;21.80;89.30;;;;;;4192438;28;20063;-58
2023/09/05 08:52:47;;;;;;;4.00;0.90;;;21.70;88.00;;;;;;4190509;28;20591;-58
2023/09/05 08:55:07;;;;;;;1.55;0.80;;;21.80;87.70;;;;;;4192273;28;20063;-58
2023/09/05 08:57:29;;;;;;;1.00;1.00;;;21.60;86.40;;;;;;4191272;28;20397;-58
2023/09/05 08:59:49;;;;;;;1.27;1.20;;;21.60;86.50;;;;;;4191214;28;20401;-59
2023/09/05 09:02:17;;;;;;;1.00;1.00;;;21.80;87.90;;;;;;4189645;28;20056;-59
2023/09/05 09:04:56;;;;;;;1.00;0.90;;;22.30;88.20;;;;;;4188867;28;20366;-59
2023/09/05 09:07:17;;;;;;;0.93;0.90;;;22.60;86.50;;;;;;4190641;28;20104;-59
2023/09/05 09:09:40;;;;;;;0.88;0.88;;;22.80;86.60;;;;;;4191784;28;20062;-59
2023/09/05 09:12:00;;;;;;;0.80;0.80;;;22.70;85.70;;;;;;4193734;28;20048;-58
2023/09/05 09:14:23;;;;;;;0.90;0.90;;;22.70;85.40;;;;;;4191878;28;20059;-58
2023/09/05 09:16:45;;;;;;;0.80;0.80;;;22.60;84.10;;;;;;4192239;28;20047;-59
2023/09/05 09:19:05;;;;;;;0.80;0.80;;;22.70;87.20;;;;;;4192719;28;20087;-58
2023/09/05 09:21:28;;;;;;;1.60;0.80;;;23.10;86.30;;;;;;4191322;28;20040;-58
2023/09/05 09:23:48;;;;;;;1.40;0.80;;;22.70;86.40;;;;;;4192004;28;20107;-59
2023/09/05 09:26:08;;;;;;;0.85;0.85;;;23.00;87.30;;;;;;4190105;28;20055;-58
2023/09/05 09:28:29;;;;;;;0.82;0.82;;;23.40;88.90;;;;;;4190665;28;20068;-59
2023/09/05 09:31:10;;;;;;;0.85;0.85;;;23.30;84.50;;;;;;4202780;28;20044;-58
2023/09/05 09:33:32;;;;;;;0.95;0.80;;;23.30;83.50;;;;;;4189650;28;20056;-58
2023/09/05 09:36:05;;;;;;;0.83;0.80;;;23.70;85.30;;;;;;4193438;28;20112;-58
2023/09/05 09:38:26;;;;;;;0.80;0.80;;;24.10;83.60;;;;;;4190885;28;20251;-58
2023/09/05 09:40:46;;;;;;;0.75;0.75;;;24.10;83.30;;;;;;4194813;28;20100;-59
2023/09/05 09:43:08;;;;;;;2.40;0.80;;;24.10;82.30;;;;;;4191975;28;20083;-59
2023/09/05 09:45:28;;;;;;;1.33;0.80;;;24.10;83.70;;;;;;4190084;28;20075;-59
2023/09/05 09:47:49;;;;;;;1.85;0.90;;;24.00;82.20;;;;;;4193034;28;20231;-58
2023/09/05 09:50:11;;;;;;;0.70;0.70;;;24.30;85.60;;;;;;4188178;28;20068;-59
2023/09/05 09:52:36;;;;;;;1.20;0.70;;;24.60;82.00;;;;;;4187825;28;20248;-59
2023/09/05 09:54:59;;;;;;;1.15;0.70;;;25.00;81.00;;;;;;4189187;28;20044;-58
2023/09/05 09:57:26;;;;;;;0.70;0.70;;;24.80;82.60;;;;;;4189773;28;20048;-59
2023/09/05 10:00:09;;;;;;;0.75;0.75;;;24.80;81.70;;;;;;4189004;28;20056;-58
2023/09/05 10:02:30;;;;;;;1.67;0.70;;;24.60;82.00;;;;;;4188380;28;20134;-58
2023/09/05 10:04:51;;;;;;;1.88;0.70;;;24.50;81.50;;;;;;4190683;28;20087;-59
2023/09/05 10:07:14;;;;;;;0.70;0.70;;;24.80;81.40;;;;;;4190539;28;20102;-59
2023/09/05 10:09:35;;;;;;;;;;;24.30;78.60;;;;;;4190662;28;20120;-58
2023/09/05 10:11:57;;;;;;;1.70;1.25;;;24.50;82.10;;;;;;4191035;28;19962;-58
2023/09/05 10:14:18;;;;;;;0.70;0.70;;;24.60;81.80;;;;;;4190769;28;20293;-58
2023/09/05 10:16:41;;;;;;;1.85;0.70;;;24.70;79.70;;;;;;4191179;28;20083;-58
2023/09/05 10:19:02;;;;;;;0.85;0.80;;;24.60;79.40;;;;;;4190193;28;20240;-59
2023/09/05 10:21:25;;;;;;;0.80;0.80;;;24.50;79.70;;;;;;4190404;28;20055;-59
2023/09/05 10:23:46;;;;;;;6.13;0.80;;;24.30;78.70;;;;;;4189862;28;20051;-59
2023/09/05 10:26:07;;;;;;;0.90;0.90;;;24.30;78.70;;;;;;4193090;28;20087;-59
2023/09/05 10:28:28;;;;;;;0.80;0.80;;;24.50;79.50;;;;;;4192717;28;20056;-59
2023/09/05 10:30:50;;;;;;;1.45;0.73;;;24.40;79.10;;;;;;4191651;28;20051;-59
2023/09/05 10:33:10;;;;;;;0.80;0.80;;;24.30;78.40;;;;;;4194505;28;20055;-59
2023/09/05 10:35:30;;;;;;;0.80;0.80;;;24.30;78.50;;;;;;4195509;28;20047;-59
2023/09/05 10:37:58;;;;;;;1.98;0.70;;;24.30;80.50;;;;;;4192771;28;20052;-59
2023/09/05 10:40:30;;;;;;;0.98;0.80;;;24.20;79.80;;;;;;4193850;28;20051;-60
2023/09/05 10:42:54;;;;;;;0.80;0.80;;;24.70;80.30;;;;;;4193758;28;20119;-59
2023/09/05 10:45:23;;;;;;;2.25;0.70;;;25.20;79.70;;;;;;4192136;28;20037;-59
2023/09/05 10:47:44;;;;;;;0.70;0.70;;;25.20;77.80;;;;;;4192426;28;20040;-59
2023/09/05 10:50:06;;;;;;;0.80;0.80;;;24.50;76.50;;;;;;4191735;28;20063;-58
2023/09/05 10:52:27;;;;;;;1.98;0.80;;;24.00;78.30;;;;;;4193576;28;20078;-58
2023/09/05 10:54:47;;;;;;;1.75;0.77;;;24.10;79.90;;;;;;4191826;28;20091;-58
2023/09/05 10:57:36;;;;;;;0.95;0.88;;;23.80;76.80;;;;;;4192168;28;20048;-59
2023/09/05 10:59:57;;;;;;;0.98;0.90;;;24.00;78.60;;;;;;4191592;28;20079;-59
2023/09/05 11:02:24;;;;;;;0.80;0.80;;;24.50;79.10;;;;;;4193690;28;20052;-59
2023/09/05 11:04:45;;;;;;;0.90;0.90;;;24.00;75.30;;;;;;4195211;28;20048;-58
2023/09/05 11:07:08;;;;;;;0.98;0.80;;;23.50;79.10;;;;;;4193721;28;20113;-58
2023/09/05 11:09:29;;;;;;;0.88;0.85;;;23.70;79.90;;;;;;4191636;28;20240;-58
2023/09/05 11:11:50;;;;;;;0.80;0.80;;;23.80;77.60;;;;;;4192897;28;20297;-58
2023/09/05 11:14:09;;;;;;;0.70;0.70;;;24.10;78.10;;;;;;4192223;28;20047;-58
2023/09/05 11:16:47;;;;;;;0.90;0.80;;;23.70;76.20;;;;;;4192413;28;20090;-59
2023/09/05 11:19:07;;;;;;;2.92;0.90;;;23.60;78.10;;;;;;4192236;28;20052;-59
2023/09/05 11:21:27;;;;;;;0.80;0.80;;;24.10;78.10;;;;;;4191254;28;20070;-59
2023/09/05 11:23:54;;;;;;;0.70;0.70;;;24.30;78.60;;;;;;4191553;28;20068;-59
2023/09/05 11:26:14;;;;;;;0.80;0.80;;;24.00;75.80;;;;;;4191511;28;20079;-58
2023/09/05 11:28:35;;;;;;;1.23;0.90;;;24.10;79.10;;;;;;4190145;28;20087;-59
2023/09/05 11:30:57;;;;;;;0.80;0.80;;;24.50;76.80;;;;;;4191818;28;20064;-58
2023/09/05 11:33:17;;;;;;;;;;;24.80;79.30;;;;;;4192085;28;20063;-59
2023/09/05 11:35:38;;;;;;;0.80;0.80;;;25.00;77.20;;;;;;4191548;28;19983;-59
2023/09/05 11:37:58;;;;;;;5.88;0.80;;;25.20;78.30;;;;;;4192115;28;20047;-58
2023/09/05 11:40:25;;;;;;;1.38;0.90;;;25.20;78.00;;;;;;4191418;28;20397;-59
2023/09/05 11:42:45;;;;;;;0.80;0.80;;;25.50;76.10;;;;;;4192230;28;20052;-59
2023/09/05 11:45:18;;;;;;;2.50;1.17;;;24.90;76.70;;;;;;4191563;28;20060;-59
2023/09/05 11:47:38;;;;;;;1.58;0.80;;;24.10;75.10;;;;;;4193124;28;20044;-58
2023/09/05 11:49:58;;;;;;;1.38;1.20;;;23.80;76.00;;;;;;4193188;28;20112;-59
2023/09/05 11:52:20;;;;;;;1.70;0.70;;;24.20;77.60;;;;;;4190749;28;20048;-58
2023/09/05 11:54:40;;;;;;;1.85;0.90;;;24.80;79.20;;;;;;4191770;28;20390;-59
2023/09/05 11:57:02;;;;;;;0.85;0.80;;;25.00;73.70;;;;;;4189994;28;20052;-59
2023/09/05 11:59:23;;;;;;;0.90;0.90;;;24.90;76.40;;;;;;4193297;28;20366;-58
2023/09/05 12:01:43;;;;;;;1.95;1.10;;;24.80;76.10;;;;;;4191780;28;20095;-59
2023/09/05 12:04:06;;;;;;;0.70;0.70;;;25.20;77.90;;;;;;4191669;28;20044;-59
2023/09/05 12:06:26;;;;;;;0.80;0.80;;;25.20;76.70;;;;;;4189776;28;20086;-59
2023/09/05 12:08:46;;;;;;;0.70;0.70;;;25.00;73.60;;;;;;4192566;28;20068;-59
2023/09/05 12:11:07;;;;;;;1.08;0.77;;;24.60;73.50;;;;;;4191909;28;20040;-59
2023/09/05 12:13:46;;;;;;;1.15;0.80;;;24.80;78.30;;;;;;4193901;28;20086;-59
2023/09/05 12:16:10;;;;;;;2.55;0.73;;;25.30;76.10;;;;;;4191920;28;20034;-59
2023/09/05 12:18:30;;;;;;;0.80;0.80;;;25.20;75.80;;;;;;4192776;28;20382;-59